Time;durP1;ratioP1;P1;durP2;ratioP2;P2;SDS_P1;SDS_P2;PMS_P1;PMS_P2;Temp;Humidity;BMP_temperature;BMP_pressure;BME280_temperature;BME280_humidity;BME280_pressure;Samples;Min_cycle;Max_cycle;Signal;HPM_P1;HPM_P2
2021/01/18 00:02:03;;;;;;;59.38;18.85;;;;;;;;;;5082880;28;20453;-84
2021/01/18 00:04:37;;;;;;;58.60;18.80;;;;;;;;;;5060274;28;20382;-84
2021/01/18 00:07:04;;;;;;;59.25;19.00;;;;;;;;;;5065447;28;20576;-83
2021/01/18 00:09:37;;;;;;;50.00;18.98;;;;;;;;;;5055283;28;20485;-84
2021/01/18 00:12:04;;;;;;;58.38;20.42;;;;;;;;;;5072355;28;20145;-84
2021/01/18 00:14:34;;;;;;;52.35;18.75;;;;;;;;;;5061332;28;20056;-83
2021/01/18 00:17:05;;;;;;;47.15;18.23;;;;;;;;;;5057008;28;20044;-83
2021/01/18 00:19:32;;;;;;;51.15;18.02;;;;;;;;;;5064744;28;20094;-84
2021/01/18 00:21:58;;;;;;;45.90;16.48;;;;;;;;;;5061635;28;20119;-84
2021/01/18 00:24:25;;;;;;;49.53;17.73;;;;;;;;;;5073438;28;20040;-84
2021/01/18 00:26:54;;;;;;;55.30;17.88;;;;;;;;;;5055200;28;20670;-84
2021/01/18 00:29:21;;;;;;;52.83;18.33;;;;;;;;;;5059872;28;20079;-84
2021/01/18 00:31:48;;;;;;;48.40;17.35;;;;;;;;;;5073940;28;20151;-84
2021/01/18 00:34:15;;;;;;;46.40;17.60;;;;;;;;;;5069622;28;20068;-84
2021/01/18 00:36:46;;;;;;;54.80;18.08;;;;;;;;;;5067890;28;20044;-84
2021/01/18 00:39:13;;;;;;;46.97;17.73;;;;;;;;;;5065651;28;20048;-84
2021/01/18 00:41:40;;;;;;;49.65;17.77;;;;;;;;;;5061490;28;20040;-85
2021/01/18 00:44:12;;;;;;;56.92;19.40;;;;;;;;;;5069057;28;20206;-85
2021/01/18 00:46:39;;;;;;;50.88;18.17;;;;;;;;;;5068227;28;20045;-84
2021/01/18 00:49:05;;;;;;;52.97;18.40;;;;;;;;;;5063135;28;20390;-84
2021/01/18 00:51:36;;;;;;;51.42;18.65;;;;;;;;;;5060249;28;20101;-84
2021/01/18 00:54:03;;;;;;;49.40;18.30;;;;;;;;;;5057579;28;20544;-84
2021/01/18 00:56:30;;;;;;;45.20;17.08;;;;;;;;;;5070543;28;20054;-84
2021/01/18 00:58:57;;;;;;;60.00;19.15;;;;;;;;;;5060092;28;20083;-84
2021/01/18 01:01:25;;;;;;;50.28;19.15;;;;;;;;;;5070147;28;20118;-84
2021/01/18 01:03:52;;;;;;;54.55;18.30;;;;;;;;;;5063143;28;20044;-85
2021/01/18 01:06:19;;;;;;;49.22;17.65;;;;;;;;;;5072364;28;20103;-84
2021/01/18 01:08:46;;;;;;;53.35;18.70;;;;;;;;;;5061163;28;20058;-85
2021/01/18 01:11:12;;;;;;;51.40;18.27;;;;;;;;;;5061274;28;20138;-85
2021/01/18 01:13:39;;;;;;;52.75;18.70;;;;;;;;;;5064250;28;20140;-85
2021/01/18 01:16:06;;;;;;;54.33;18.55;;;;;;;;;;5067782;28;21738;-84
2021/01/18 01:18:33;;;;;;;60.03;18.77;;;;;;;;;;5074635;28;20449;-84
2021/01/18 01:21:02;;;;;;;48.00;17.75;;;;;;;;;;5073903;28;20033;-84
2021/01/18 01:23:30;;;;;;;48.40;17.42;;;;;;;;;;5061965;28;20040;-84
2021/01/18 01:25:57;;;;;;;52.75;18.55;;;;;;;;;;5064922;28;20071;-84
2021/01/18 01:28:25;;;;;;;52.90;19.52;;;;;;;;;;5064255;28;20048;-84
2021/01/18 01:30:52;;;;;;;45.38;17.40;;;;;;;;;;5064630;28;20076;-84
2021/01/18 01:33:18;;;;;;;46.55;18.17;;;;;;;;;;5082562;28;20139;-84
2021/01/18 01:35:45;;;;;;;56.35;19.27;;;;;;;;;;5070480;28;20646;-84
2021/01/18 01:38:12;;;;;;;54.65;17.73;;;;;;;;;;5066612;28;20691;-84
2021/01/18 01:40:41;;;;;;;57.88;18.20;;;;;;;;;;5067332;28;20469;-83
2021/01/18 01:43:07;;;;;;;48.25;17.95;;;;;;;;;;5063854;28;20097;-83
2021/01/18 01:45:34;;;;;;;58.05;19.35;;;;;;;;;;5060575;28;20072;-82
2021/01/18 01:48:05;;;;;;;53.90;18.05;;;;;;;;;;5070266;28;20851;-83
2021/01/18 01:50:33;;;;;;;52.53;18.33;;;;;;;;;;5061363;28;20089;-83
2021/01/18 01:53:11;;;;;;;54.35;19.05;;;;;;;;;;5059672;28;20052;-84
2021/01/18 01:55:39;;;;;;;56.13;17.67;;;;;;;;;;5060077;28;20053;-83
2021/01/18 01:58:07;;;;;;;54.22;18.38;;;;;;;;;;5061990;28;20049;-83
2021/01/18 02:00:41;;;;;;;48.90;17.83;;;;;;;;;;5065737;28;20362;-83
2021/01/18 02:03:21;;;;;;;51.00;17.83;;;;;;;;;;5063054;28;20159;-83
2021/01/18 02:05:49;;;;;;;54.30;19.17;;;;;;;;;;5069108;28;20136;-83
2021/01/18 02:08:15;;;;;;;56.58;19.08;;;;;;;;;;5063613;28;20091;-83
2021/01/18 02:10:42;;;;;;;52.55;18.23;;;;;;;;;;5056619;28;20107;-83
2021/01/18 02:13:18;;;;;;;58.97;20.35;;;;;;;;;;5059105;28;20052;-83
2021/01/18 02:15:52;;;;;;;52.20;18.92;;;;;;;;;;5068389;28;20055;-83
2021/01/18 02:18:23;;;;;;;48.25;17.73;;;;;;;;;;5058798;28;20128;-83
2021/01/18 02:21:08;;;;;;;54.17;19.73;;;;;;;;;;5069718;28;20379;-83
2021/01/18 02:23:47;;;;;;;59.05;19.67;;;;;;;;;;5057154;28;20049;-83
2021/01/18 02:26:29;;;;;;;62.03;19.35;;;;;;;;;;5054833;28;20059;-82
2021/01/18 02:29:21;;;;;;;48.88;18.92;;;;;;;;;;5061882;28;20504;-82
2021/01/18 02:32:04;;;;;;;67.00;20.67;;;;;;;;;;5064737;28;20052;-82
2021/01/18 02:34:34;;;;;;;56.70;19.27;;;;;;;;;;5066860;28;20049;-82
2021/01/18 02:37:01;;;;;;;66.70;21.52;;;;;;;;;;5064205;28;20073;-83
2021/01/18 02:39:47;;;;;;;60.42;20.35;;;;;;;;;;5066551;28;20037;-82
2021/01/18 02:42:16;;;;;;;58.70;21.42;;;;;;;;;;5059503;28;20041;-83
2021/01/18 02:44:46;;;;;;;54.92;21.02;;;;;;;;;;5063551;28;20044;-82
2021/01/18 02:47:13;;;;;;;59.58;22.50;;;;;;;;;;5059418;28;20086;-83
2021/01/18 02:49:40;;;;;;;56.97;21.65;;;;;;;;;;5076101;28;20049;-83
2021/01/18 02:52:15;;;;;;;60.92;21.70;;;;;;;;;;5057371;28;20788;-83
2021/01/18 02:54:41;;;;;;;60.90;21.67;;;;;;;;;;5079044;28;20072;-83
2021/01/18 02:57:15;;;;;;;53.42;20.63;;;;;;;;;;5056372;28;20679;-82
2021/01/18 02:59:42;;;;;;;62.50;21.45;;;;;;;;;;5066512;28;20123;-82
2021/01/18 03:02:15;;;;;;;53.47;20.50;;;;;;;;;;5058873;28;20072;-83
2021/01/18 03:05:07;;;;;;;63.72;21.25;;;;;;;;;;5058307;28;20044;-83
2021/01/18 03:07:45;;;;;;;64.45;21.85;;;;;;;;;;5060069;28;20122;-83
2021/01/18 03:10:21;;;;;;;55.15;20.75;;;;;;;;;;5061327;28;20072;-83
2021/01/18 03:13:02;;;;;;;69.25;22.88;;;;;;;;;;5065847;28;20098;-83
2021/01/18 03:15:31;;;;;;;56.67;20.10;;;;;;;;;;5065291;28;20094;-83
2021/01/18 03:18:21;;;;;;;58.38;21.08;;;;;;;;;;5063181;28;20567;-83
2021/01/18 03:20:48;;;;;;;58.05;22.83;;;;;;;;;;5063589;28;20673;-83
2021/01/18 03:23:14;;;;;;;56.90;20.63;;;;;;;;;;5056083;28;20056;-83
2021/01/18 03:25:47;;;;;;;53.67;21.38;;;;;;;;;;5060020;28;20044;-83
2021/01/18 03:28:20;;;;;;;52.72;20.00;;;;;;;;;;5055334;28;20057;-83
2021/01/18 03:30:47;;;;;;;56.38;20.98;;;;;;;;;;5061177;28;20066;-83
2021/01/18 03:33:15;;;;;;;55.78;20.30;;;;;;;;;;5069486;28;20504;-83
2021/01/18 03:35:42;;;;;;;57.33;22.42;;;;;;;;;;5071323;28;20527;-83
2021/01/18 03:38:10;;;;;;;62.97;22.55;;;;;;;;;;5057741;28;20452;-83
2021/01/18 03:40:37;;;;;;;61.28;22.70;;;;;;;;;;5060714;28;20045;-83
2021/01/18 03:43:05;;;;;;;63.17;22.85;;;;;;;;;;5056702;28;20072;-83
2021/01/18 03:45:33;;;;;;;61.30;22.10;;;;;;;;;;5059210;28;20094;-83
2021/01/18 03:47:59;;;;;;;66.18;23.48;;;;;;;;;;5062194;28;20371;-83
2021/01/18 03:50:28;;;;;;;65.93;23.77;;;;;;;;;;5061524;28;20123;-82
2021/01/18 03:52:55;;;;;;;61.30;22.70;;;;;;;;;;5058431;28;20083;-83
2021/01/18 03:55:22;;;;;;;55.95;21.98;;;;;;;;;;5061030;28;20508;-83
2021/01/18 03:57:52;;;;;;;58.83;22.10;;;;;;;;;;5067756;28;20040;-83
2021/01/18 04:00:21;;;;;;;61.78;23.15;;;;;;;;;;5061214;28;20478;-83
2021/01/18 04:02:51;;;;;;;66.65;23.10;;;;;;;;;;5053480;28;20490;-83
2021/01/18 04:05:18;;;;;;;70.93;25.30;;;;;;;;;;5062183;28;20044;-83
2021/01/18 04:07:45;;;;;;;70.30;24.58;;;;;;;;;;5060806;28;20052;-83
2021/01/18 04:10:15;;;;;;;62.22;22.90;;;;;;;;;;5064977;28;20125;-83
2021/01/18 04:12:43;;;;;;;66.13;25.13;;;;;;;;;;5078358;28;20095;-83
2021/01/18 04:15:10;;;;;;;69.07;24.55;;;;;;;;;;5062615;28;20140;-82
2021/01/18 04:17:41;;;;;;;70.60;26.77;;;;;;;;;;5066138;28;20040;-82
2021/01/18 04:20:09;;;;;;;66.78;25.42;;;;;;;;;;5074954;28;20090;-82
2021/01/18 04:22:36;;;;;;;69.80;25.30;;;;;;;;;;5072436;28;20106;-81
2021/01/18 04:25:03;;;;;;;63.78;24.13;;;;;;;;;;5082183;28;20731;-82
2021/01/18 04:27:30;;;;;;;73.00;25.80;;;;;;;;;;5060930;28;20041;-82
2021/01/18 04:29:57;;;;;;;69.28;24.35;;;;;;;;;;5057843;28;20079;-82
2021/01/18 04:32:23;;;;;;;63.60;23.65;;;;;;;;;;5065511;28;20099;-82
2021/01/18 04:34:50;;;;;;;65.32;24.00;;;;;;;;;;5068130;28;20083;-82
2021/01/18 04:37:19;;;;;;;69.25;25.90;;;;;;;;;;5063920;28;20052;-82
2021/01/18 04:39:46;;;;;;;61.75;23.75;;;;;;;;;;5072459;28;20124;-82
2021/01/18 04:42:17;;;;;;;64.03;23.10;;;;;;;;;;5062944;28;20076;-82
2021/01/18 04:44:44;;;;;;;65.22;23.52;;;;;;;;;;5068630;28;20627;-82
2021/01/18 04:47:13;;;;;;;64.20;23.30;;;;;;;;;;5063588;28;20083;-81
2021/01/18 04:49:41;;;;;;;64.38;23.02;;;;;;;;;;5078149;28;20044;-82
2021/01/18 04:52:12;;;;;;;56.85;22.42;;;;;;;;;;5064771;28;20134;-82
2021/01/18 04:54:46;;;;;;;62.33;22.33;;;;;;;;;;5081690;28;20045;-82
2021/01/18 04:57:16;;;;;;;59.08;23.23;;;;;;;;;;5065296;28;20140;-82
2021/01/18 04:59:48;;;;;;;63.67;23.50;;;;;;;;;;5061780;28;20475;-82
2021/01/18 05:02:18;;;;;;;56.83;21.42;;;;;;;;;;5065483;28;20076;-84
2021/01/18 05:04:50;;;;;;;63.63;22.30;;;;;;;;;;5070938;28;20051;-82
2021/01/18 05:07:23;;;;;;;62.05;23.17;;;;;;;;;;5067905;28;20071;-82
2021/01/18 05:09:56;;;;;;;66.13;24.85;;;;;;;;;;5062456;28;20132;-83
2021/01/18 05:12:23;;;;;;;59.00;22.48;;;;;;;;;;5081546;28;20052;-82
2021/01/18 05:14:51;;;;;;;59.85;21.20;;;;;;;;;;5067564;28;20482;-81
2021/01/18 05:17:35;;;;;;;63.35;22.38;;;;;;;;;;5064294;28;20068;-83
2021/01/18 05:20:03;;;;;;;65.88;22.83;;;;;;;;;;5062025;28;20045;-82
2021/01/18 05:22:30;;;;;;;60.55;22.15;;;;;;;;;;5076041;28;21829;-82
2021/01/18 05:24:57;;;;;;;59.50;21.65;;;;;;;;;;5073083;28;20460;-82
2021/01/18 05:27:23;;;;;;;55.20;21.00;;;;;;;;;;5062291;28;20041;-82
2021/01/18 05:29:56;;;;;;;61.03;22.80;;;;;;;;;;5063177;28;20075;-82
2021/01/18 05:32:24;;;;;;;59.58;21.55;;;;;;;;;;5061821;28;20131;-82
2021/01/18 05:35:11;;;;;;;62.63;21.40;;;;;;;;;;5059623;28;20048;-83
2021/01/18 05:37:57;;;;;;;60.50;22.48;;;;;;;;;;5061431;28;20100;-83
2021/01/18 05:40:24;;;;;;;66.85;24.20;;;;;;;;;;5061636;28;20091;-83
2021/01/18 05:42:51;;;;;;;60.88;23.27;;;;;;;;;;5058636;28;20482;-83
2021/01/18 05:45:31;;;;;;;66.70;24.55;;;;;;;;;;5062421;28;20045;-83
2021/01/18 05:47:59;;;;;;;67.88;24.83;;;;;;;;;;5066472;28;20132;-82
2021/01/18 05:50:26;;;;;;;60.95;23.40;;;;;;;;;;5071085;28;20054;-82
2021/01/18 05:52:53;;;;;;;56.42;21.95;;;;;;;;;;5067492;28;20072;-81
2021/01/18 05:55:29;;;;;;;55.90;21.77;;;;;;;;;;5063581;28;20059;-81
2021/01/18 05:58:03;;;;;;;69.38;23.92;;;;;;;;;;5063376;28;20132;-81
2021/01/18 06:00:41;;;;;;;68.40;24.08;;;;;;;;;;5061716;28;20045;-82
2021/01/18 06:03:11;;;;;;;55.35;21.20;;;;;;;;;;5064158;28;20048;-87
2021/01/18 06:05:39;;;;;;;66.10;24.45;;;;;;;;;;5067160;28;20041;-85
2021/01/18 06:08:18;;;;;;;67.97;22.98;;;;;;;;;;5064539;28;20479;-85
2021/01/18 06:10:50;;;;;;;66.47;23.17;;;;;;;;;;5064247;28;20056;-80
2021/01/18 06:13:20;;;;;;;61.10;22.38;;;;;;;;;;5060740;28;20059;-86
2021/01/18 06:15:48;;;;;;;65.40;22.30;;;;;;;;;;5058617;28;20053;-86
2021/01/18 06:18:18;;;;;;;58.08;22.02;;;;;;;;;;5061060;28;20048;-87
2021/01/18 06:20:45;;;;;;;64.90;23.42;;;;;;;;;;5074399;28;20098;-84
2021/01/18 06:23:21;;;;;;;66.32;23.70;;;;;;;;;;5056315;28;20120;-87
2021/01/18 06:25:53;;;;;;;61.92;22.85;;;;;;;;;;5066886;28;20095;-90
2021/01/18 06:28:27;;;;;;;62.08;23.23;;;;;;;;;;5072159;28;20128;-90
2021/01/18 06:31:01;;;;;;;68.68;23.92;;;;;;;;;;5066611;28;20639;-90
2021/01/18 06:33:35;;;;;;;62.13;22.35;;;;;;;;;;5066226;28;20044;-91
2021/01/18 06:36:13;;;;;;;68.47;24.77;;;;;;;;;;5062271;28;20073;-79
2021/01/18 06:38:42;;;;;;;62.47;23.08;;;;;;;;;;5074285;28;20055;-78
2021/01/18 06:41:09;;;;;;;70.30;24.30;;;;;;;;;;5067686;28;20102;-78
2021/01/18 06:43:36;;;;;;;59.05;23.38;;;;;;;;;;5069757;28;20151;-79
2021/01/18 06:46:25;;;;;;;73.85;25.35;;;;;;;;;;5066463;28;20797;-79
2021/01/18 06:48:53;;;;;;;67.68;24.30;;;;;;;;;;5080654;28;20078;-78
2021/01/18 06:51:23;;;;;;;62.15;23.73;;;;;;;;;;5068213;28;20052;-80
2021/01/18 06:53:57;;;;;;;56.65;20.88;;;;;;;;;;5071438;28;20044;-80
2021/01/18 06:56:25;;;;;;;67.85;23.42;;;;;;;;;;5067491;28;20464;-79
2021/01/18 06:59:10;;;;;;;71.22;26.58;;;;;;;;;;5070250;28;20487;-79
2021/01/18 07:01:38;;;;;;;71.65;26.20;;;;;;;;;;5072303;28;20146;-79
2021/01/18 07:04:09;;;;;;;77.80;26.42;;;;;;;;;;5080049;28;20048;-79
2021/01/18 07:06:36;;;;;;;69.13;26.20;;;;;;;;;;5070503;28;20501;-79
2021/01/18 07:09:21;;;;;;;72.90;26.73;;;;;;;;;;5072114;28;20118;-79
2021/01/18 07:12:04;;;;;;;74.13;25.73;;;;;;;;;;5063295;28;20068;-80
2021/01/18 07:14:31;;;;;;;69.22;24.60;;;;;;;;;;5085286;28;20044;-80
2021/01/18 07:17:11;;;;;;;69.50;25.75;;;;;;;;;;5071848;28;20095;-80
2021/01/18 07:19:47;;;;;;;72.70;26.40;;;;;;;;;;5064550;28;20056;-80
2021/01/18 07:22:33;;;;;;;;;;;;;;;;;;5070461;28;20707;-80
2021/01/18 07:25:36;;;;;;;76.30;26.23;;;;;;;;;;5070602;28;19920;-79
2021/01/18 07:28:03;;;;;;;75.47;26.75;;;;;;;;;;5071345;28;20094;-80
2021/01/18 07:30:31;;;;;;;78.68;29.23;;;;;;;;;;5070345;28;20075;-79
2021/01/18 07:33:08;;;;;;;95.47;30.70;;;;;;;;;;5062536;28;20045;-79
2021/01/18 07:35:38;;;;;;;78.97;29.48;;;;;;;;;;5067930;28;20060;-80
2021/01/18 07:38:28;;;;;;;81.35;29.58;;;;;;;;;;5067257;28;20088;-80
2021/01/18 07:41:07;;;;;;;84.28;30.92;;;;;;;;;;5065333;28;20048;-80
2021/01/18 07:43:39;;;;;;;80.43;29.77;;;;;;;;;;5070765;28;20414;-80
2021/01/18 07:46:28;;;;;;;80.68;29.30;;;;;;;;;;5062721;28;20525;-80
2021/01/18 07:48:56;;;;;;;89.90;31.45;;;;;;;;;;5070509;28;20044;-79
2021/01/18 07:51:23;;;;;;;83.32;32.70;;;;;;;;;;5066929;28;20049;-79
2021/01/18 07:54:05;;;;;;;95.55;30.15;;;;;;;;;;5071904;28;20051;-79
2021/01/18 07:56:32;;;;;;;87.90;30.85;;;;;;;;;;5069727;28;20083;-80
2021/01/18 07:58:59;;;;;;;83.03;31.58;;;;;;;;;;5070414;28;20040;-80
2021/01/18 08:01:29;;;;;;;82.80;29.40;;;;;;;;;;5065568;28;20132;-80
2021/01/18 08:04:15;;;;;;;89.18;30.10;;;;;;;;;;5072158;28;20501;-80
2021/01/18 08:07:01;;;;;;;85.88;30.70;;;;;;;;;;5069076;28;20076;-80
2021/01/18 08:09:28;;;;;;;75.93;30.25;;;;;;;;;;5070743;28;20098;-80
2021/01/18 08:12:13;;;;;;;81.63;30.70;;;;;;;;;;5065463;28;20060;-79
2021/01/18 08:14:40;;;;;;;;;;;;;;;;;;5066019;28;20052;-79
2021/01/18 08:17:16;;;;;;;83.10;30.50;;;;;;;;;;5068965;28;20461;-79
2021/01/18 08:20:02;;;;;;;90.47;31.35;;;;;;;;;;5067952;28;20075;-79
2021/01/18 08:22:29;;;;;;;;;;;;;;;;;;5072017;28;20080;-80
2021/01/18 08:24:56;;;;;;;84.60;29.33;;;;;;;;;;5070522;28;19924;-79
2021/01/18 08:27:38;;;;;;;87.90;31.00;;;;;;;;;;5071850;28;20083;-80
2021/01/18 08:30:27;;;;;;;94.97;31.90;;;;;;;;;;5065935;28;20052;-80
2021/01/18 08:32:54;;;;;;;88.82;32.63;;;;;;;;;;5070093;28;20829;-80
2021/01/18 08:35:24;;;;;;;99.50;32.17;;;;;;;;;;5070349;28;20055;-80
2021/01/18 08:38:10;;;;;;;100.53;33.03;;;;;;;;;;5070153;28;20044;-80
2021/01/18 08:40:40;;;;;;;94.00;31.70;;;;;;;;;;5069730;28;20378;-80
2021/01/18 08:43:07;;;;;;;93.05;33.28;;;;;;;;;;5069988;28;20121;-79
2021/01/18 08:45:39;;;;;;;94.47;32.55;;;;;;;;;;5069449;28;20557;-80
2021/01/18 08:48:09;;;;;;;101.80;32.67;;;;;;;;;;5070773;28;20048;-80
2021/01/18 08:50:39;;;;;;;97.93;34.50;;;;;;;;;;5072227;28;20048;-80
2021/01/18 08:53:24;;;;;;;97.45;32.55;;;;;;;;;;5072814;28;20056;-80
2021/01/18 08:55:52;;;;;;;107.80;32.03;;;;;;;;;;5082194;28;20050;-81
2021/01/18 08:58:31;;;;;;;97.65;34.92;;;;;;;;;;5073303;28;20504;-80
2021/01/18 09:00:58;;;;;;;97.85;34.05;;;;;;;;;;5073183;28;20049;-80
2021/01/18 09:03:27;;;;;;;99.05;33.55;;;;;;;;;;5069510;28;20513;-80
2021/01/18 09:05:55;;;;;;;109.25;33.50;;;;;;;;;;5068945;28;20060;-80
2021/01/18 09:08:22;;;;;;;111.60;33.55;;;;;;;;;;5069984;28;20052;-81
2021/01/18 09:10:52;;;;;;;107.55;34.17;;;;;;;;;;5066643;28;20136;-81
2021/01/18 09:13:21;;;;;;;106.30;34.78;;;;;;;;;;5064777;28;20568;-81
2021/01/18 09:15:47;;;;;;;116.03;34.80;;;;;;;;;;5073215;28;20048;-80
2021/01/18 09:18:14;;;;;;;104.10;33.88;;;;;;;;;;5079999;28;20087;-81
2021/01/18 09:20:42;;;;;;;109.55;34.10;;;;;;;;;;5071655;28;20060;-81
2021/01/18 09:23:09;;;;;;;110.72;35.88;;;;;;;;;;5074516;28;20072;-81
2021/01/18 09:25:59;;;;;;;116.72;36.00;;;;;;;;;;5065810;28;20047;-81
2021/01/18 09:28:27;;;;;;;104.75;32.03;;;;;;;;;;5073209;28;20056;-82
2021/01/18 09:30:53;;;;;;;105.15;33.90;;;;;;;;;;5077339;28;20043;-81
2021/01/18 09:33:20;;;;;;;101.80;32.42;;;;;;;;;;5079895;28;20454;-82
2021/01/18 09:35:51;;;;;;;109.85;33.22;;;;;;;;;;5069164;28;20079;-81
2021/01/18 09:38:18;;;;;;;98.97;32.25;;;;;;;;;;5067876;28;20079;-81
2021/01/18 09:40:44;;;;;;;99.25;33.05;;;;;;;;;;5073243;28;20106;-81
2021/01/18 09:43:12;;;;;;;103.57;33.72;;;;;;;;;;5067352;28;20087;-81
2021/01/18 09:45:40;;;;;;;119.22;35.50;;;;;;;;;;5071800;28;20071;-83
2021/01/18 09:48:13;;;;;;;104.65;34.47;;;;;;;;;;5072886;28;20075;-84
2021/01/18 09:50:40;;;;;;;113.25;33.97;;;;;;;;;;5072760;28;20522;-80
2021/01/18 09:53:13;;;;;;;107.97;33.88;;;;;;;;;;5067273;28;20049;-79
2021/01/18 09:55:47;;;;;;;111.20;33.95;;;;;;;;;;5072839;28;20045;-81
2021/01/18 09:58:15;;;;;;;113.90;36.83;;;;;;;;;;5068369;28;20048;-82
2021/01/18 10:00:43;;;;;;;107.30;33.05;;;;;;;;;;5068198;28;20473;-82
2021/01/18 10:03:10;;;;;;;97.53;32.95;;;;;;;;;;5077583;28;20045;-81
2021/01/18 10:05:44;;;;;;;111.40;34.88;;;;;;;;;;5063521;28;20048;-83
2021/01/18 10:08:12;;;;;;;114.38;35.78;;;;;;;;;;5065122;28;20120;-81
2021/01/18 10:10:47;;;;;;;103.18;34.00;;;;;;;;;;5071350;28;20048;-80
2021/01/18 10:13:16;;;;;;;105.90;31.02;;;;;;;;;;5071168;28;20052;-80
2021/01/18 10:15:44;;;;;;;95.22;32.38;;;;;;;;;;5071484;28;20102;-81
2021/01/18 10:18:27;;;;;;;101.20;31.05;;;;;;;;;;5067039;28;20083;-80
2021/01/18 10:20:54;;;;;;;94.95;32.20;;;;;;;;;;5072649;28;20127;-80
2021/01/18 10:23:21;;;;;;;96.45;29.70;;;;;;;;;;5067918;28;20335;-81
2021/01/18 10:25:47;;;;;;;99.80;31.95;;;;;;;;;;5072221;28;20053;-81
2021/01/18 10:28:20;;;;;;;97.22;30.17;;;;;;;;;;5068364;28;20092;-81
2021/01/18 10:30:47;;;;;;;87.65;27.88;;;;;;;;;;5069040;28;20133;-80
2021/01/18 10:33:15;;;;;;;87.70;27.52;;;;;;;;;;5088208;28;20090;-81
2021/01/18 10:35:43;;;;;;;91.28;27.58;;;;;;;;;;5071780;28;20044;-81
2021/01/18 10:38:19;;;;;;;90.68;28.15;;;;;;;;;;5070050;28;20084;-80
2021/01/18 10:41:05;;;;;;;87.22;29.17;;;;;;;;;;5063003;28;20409;-81
2021/01/18 10:43:42;;;;;;;87.03;28.20;;;;;;;;;;5070896;28;20052;-82
2021/01/18 10:46:16;;;;;;;95.57;26.67;;;;;;;;;;5071400;28;20466;-81
2021/01/18 10:48:43;;;;;;;85.95;27.60;;;;;;;;;;5080284;28;20040;-81
2021/01/18 10:51:10;;;;;;;88.18;28.23;;;;;;;;;;5063841;28;20107;-81
2021/01/18 10:53:37;;;;;;;96.20;28.85;;;;;;;;;;5069437;28;20123;-82
2021/01/18 10:56:22;;;;;;;85.88;29.23;;;;;;;;;;5072328;28;20048;-81
2021/01/18 10:58:56;;;;;;;98.03;29.42;;;;;;;;;;5072274;28;20113;-81
2021/01/18 11:01:23;;;;;;;98.63;30.42;;;;;;;;;;5077884;28;20762;-81
2021/01/18 11:03:50;;;;;;;93.15;28.73;;;;;;;;;;5077756;28;20074;-80
2021/01/18 11:06:18;;;;;;;96.80;28.95;;;;;;;;;;5068816;28;20083;-81
2021/01/18 11:08:45;;;;;;;95.53;29.10;;;;;;;;;;5071068;28;20051;-81
2021/01/18 11:11:22;;;;;;;89.18;27.15;;;;;;;;;;5072079;28;20106;-81
2021/01/18 11:13:58;;;;;;;102.75;29.23;;;;;;;;;;5068686;28;20076;-81
2021/01/18 11:16:25;;;;;;;96.05;28.33;;;;;;;;;;5069163;28;20477;-81
2021/01/18 11:18:58;;;;;;;85.13;28.35;;;;;;;;;;5066974;28;20045;-80
2021/01/18 11:21:27;;;;;;;99.68;28.45;;;;;;;;;;5067537;28;20056;-80
2021/01/18 11:23:55;;;;;;;93.28;27.75;;;;;;;;;;5070277;28;20044;-81
2021/01/18 11:26:22;;;;;;;90.78;27.58;;;;;;;;;;5068736;28;20045;-81
2021/01/18 11:28:49;;;;;;;90.53;27.48;;;;;;;;;;5062611;28;20079;-81
2021/01/18 11:31:15;;;;;;;99.63;29.02;;;;;;;;;;5071051;28;20049;-80
2021/01/18 11:33:44;;;;;;;91.50;27.90;;;;;;;;;;5063800;28;20098;-82
2021/01/18 11:36:11;;;;;;;86.95;27.77;;;;;;;;;;5070558;28;20110;-81
2021/01/18 11:38:39;;;;;;;96.82;28.55;;;;;;;;;;5065693;28;20167;-80
2021/01/18 11:41:05;;;;;;;87.80;27.45;;;;;;;;;;5070133;28;20045;-81
2021/01/18 11:43:33;;;;;;;92.00;27.00;;;;;;;;;;5070371;28;20045;-81
2021/01/18 11:46:00;;;;;;;100.35;28.67;;;;;;;;;;5071613;28;20475;-80
2021/01/18 11:48:28;;;;;;;90.05;27.65;;;;;;;;;;5061956;28;20053;-80
2021/01/18 11:50:55;;;;;;;94.95;27.23;;;;;;;;;;5067053;28;20066;-81
2021/01/18 11:53:22;;;;;;;88.90;26.60;;;;;;;;;;5067902;28;20136;-81
2021/01/18 11:55:49;;;;;;;100.40;28.40;;;;;;;;;;5069310;28;20566;-84
2021/01/18 11:58:16;;;;;;;100.38;28.63;;;;;;;;;;5070917;28;20484;-85
2021/01/18 12:00:47;;;;;;;93.20;27.45;;;;;;;;;;5070138;28;20131;-83
2021/01/18 12:03:14;;;;;;;96.70;27.45;;;;;;;;;;5082614;28;20308;-82
2021/01/18 12:05:40;;;;;;;103.00;28.65;;;;;;;;;;5070789;28;20358;-87
2021/01/18 12:08:07;;;;;;;106.72;28.65;;;;;;;;;;5068996;28;20061;-84
2021/01/18 12:10:39;;;;;;;110.30;27.92;;;;;;;;;;5068065;28;20052;-82
2021/01/18 12:13:12;;;;;;;127.82;29.35;;;;;;;;;;5066292;28;20072;-82
2021/01/18 12:15:42;;;;;;;106.05;27.30;;;;;;;;;;5069632;28;20048;-82
2021/01/18 12:18:08;;;;;;;123.10;28.90;;;;;;;;;;5066829;28;20072;-81
2021/01/18 12:20:38;;;;;;;130.85;28.42;;;;;;;;;;5069824;28;20045;-82
2021/01/18 12:23:08;;;;;;;109.45;28.02;;;;;;;;;;5069769;28;20642;-81
2021/01/18 12:25:35;;;;;;;95.57;27.35;;;;;;;;;;5071955;28;20089;-82
2021/01/18 12:28:02;;;;;;;114.35;28.88;;;;;;;;;;5073779;28;20425;-82
2021/01/18 12:30:29;;;;;;;115.78;29.05;;;;;;;;;;5073330;28;20052;-82
2021/01/18 12:32:55;;;;;;;101.93;27.02;;;;;;;;;;5079754;28;20845;-83
2021/01/18 12:35:36;;;;;;;89.18;26.00;;;;;;;;;;5068877;28;20060;-91
2021/01/18 12:38:03;;;;;;;97.00;24.67;;;;;;;;;;5076124;28;20516;-87
2021/01/18 12:40:30;;;;;;;104.20;26.45;;;;;;;;;;5074348;28;20087;-87
2021/01/18 12:43:01;;;;;;;110.72;28.25;;;;;;;;;;5067725;28;20071;-86
2021/01/18 12:45:29;;;;;;;118.55;29.92;;;;;;;;;;5074111;28;20044;-88
2021/01/18 12:47:56;;;;;;;96.05;26.02;;;;;;;;;;5074635;28;20044;-90
2021/01/18 12:50:23;;;;;;;106.70;27.85;;;;;;;;;;5080852;28;20586;-86
2021/01/18 12:52:50;;;;;;;105.88;27.60;;;;;;;;;;5071897;28;20458;-80
2021/01/18 12:55:21;;;;;;;94.20;25.38;;;;;;;;;;5069183;28;20072;-82
2021/01/18 12:57:50;;;;;;;96.00;25.20;;;;;;;;;;5063339;28;20080;-83
2021/01/18 13:00:17;;;;;;;94.05;25.40;;;;;;;;;;5071132;28;20048;-83
2021/01/18 13:02:44;;;;;;;92.82;23.23;;;;;;;;;;5089470;28;20471;-83
2021/01/18 13:05:13;;;;;;;92.32;24.90;;;;;;;;;;5076402;28;20048;-83
2021/01/18 13:08:00;;;;;;;79.32;23.27;;;;;;;;;;5062013;28;20777;-83
2021/01/18 13:10:28;;;;;;;83.43;22.50;;;;;;;;;;5069672;28;20455;-83
2021/01/18 13:12:55;;;;;;;83.85;22.73;;;;;;;;;;5072012;28;20071;-83
2021/01/18 13:15:22;;;;;;;88.45;23.27;;;;;;;;;;5072579;28;20078;-81
2021/01/18 13:17:52;;;;;;;88.57;22.13;;;;;;;;;;5065050;28;20068;-83
2021/01/18 13:20:18;;;;;;;79.95;21.55;;;;;;;;;;5060902;28;20041;-83
2021/01/18 13:22:45;;;;;;;69.50;20.48;;;;;;;;;;5063280;28;20561;-80
2021/01/18 13:25:17;;;;;;;84.95;22.52;;;;;;;;;;5061476;28;20045;-83
2021/01/18 13:27:44;;;;;;;96.47;23.65;;;;;;;;;;5066264;28;20056;-80
2021/01/18 13:30:12;;;;;;;93.82;22.65;;;;;;;;;;5059015;28;20072;-80
2021/01/18 13:32:39;;;;;;;69.97;19.45;;;;;;;;;;5062238;28;20053;-79
2021/01/18 13:35:09;;;;;;;73.60;19.95;;;;;;;;;;5050487;28;20064;-81
2021/01/18 13:37:39;;;;;;;74.07;20.88;;;;;;;;;;5063242;28;20053;-79
2021/01/18 13:40:14;;;;;;;74.60;19.45;;;;;;;;;;5066632;28;20106;-79
2021/01/18 13:42:41;;;;;;;65.53;20.13;;;;;;;;;;5059193;28;20049;-80
2021/01/18 13:45:09;;;;;;;70.45;19.23;;;;;;;;;;5056802;28;20144;-78
2021/01/18 13:47:35;;;;;;;84.75;21.45;;;;;;;;;;5054623;28;20080;-78
2021/01/18 13:50:03;;;;;;;67.25;19.92;;;;;;;;;;5054309;28;20136;-82
2021/01/18 13:52:33;;;;;;;67.57;18.65;;;;;;;;;;5054135;28;20502;-82
2021/01/18 13:55:03;;;;;;;61.67;18.45;;;;;;;;;;5069416;28;20156;-86
2021/01/18 13:57:31;;;;;;;73.78;18.83;;;;;;;;;;5063768;28;20048;-84
2021/01/18 13:59:58;;;;;;;60.72;18.55;;;;;;;;;;5058739;28;20094;-84
2021/01/18 14:02:31;;;;;;;59.03;17.63;;;;;;;;;;5074654;28;20055;-82
2021/01/18 14:04:58;;;;;;;61.42;17.15;;;;;;;;;;5060822;28;20049;-85
2021/01/18 14:07:25;;;;;;;53.42;17.05;;;;;;;;;;5077757;28;20091;-83
2021/01/18 14:09:53;;;;;;;59.25;17.08;;;;;;;;;;5059437;28;20121;-83
2021/01/18 14:12:19;;;;;;;59.53;16.95;;;;;;;;;;5055872;28;20119;-82
2021/01/18 14:14:48;;;;;;;55.97;17.70;;;;;;;;;;5060472;28;20127;-82
2021/01/18 14:17:15;;;;;;;47.92;14.88;;;;;;;;;;5064643;28;20052;-82
2021/01/18 14:19:42;;;;;;;51.47;14.75;;;;;;;;;;5079123;28;20497;-82
2021/01/18 14:22:09;;;;;;;48.63;14.68;;;;;;;;;;5060487;28;20048;-83
2021/01/18 14:24:35;;;;;;;58.08;15.15;;;;;;;;;;5063106;28;20117;-81
2021/01/18 14:27:03;;;;;;;39.70;14.05;;;;;;;;;;5071741;28;20040;-86
2021/01/18 14:29:37;;;;;;;77.63;15.13;;;;;;;;;;5069572;28;20056;-82
2021/01/18 14:32:06;;;;;;;38.42;13.55;;;;;;;;;;5058681;28;20131;-82
2021/01/18 14:34:34;;;;;;;43.28;12.80;;;;;;;;;;5060690;28;20060;-82
2021/01/18 14:37:01;;;;;;;37.97;13.43;;;;;;;;;;5059598;28;20049;-79